sensor_id;sensor_type;location;lat;lon;timestamp;temperature;humidity
25753;DHT22;13600;50.816;4.416;2023-02-12T00:01:09;10.30;99.90
25753;DHT22;13600;50.816;4.416;2023-02-12T00:03:36;10.40;99.90
25753;DHT22;13600;50.816;4.416;2023-02-12T00:06:02;10.50;99.90
25753;DHT22;13600;50.816;4.416;2023-02-12T00:08:28;10.40;99.90
25753;DHT22;13600;50.816;4.416;2023-02-12T00:10:54;10.30;99.90
25753;DHT22;13600;50.816;4.416;2023-02-12T00:13:19;10.30;99.90
25753;DHT22;13600;50.816;4.416;2023-02-12T00:15:46;10.20;99.90
25753;DHT22;13600;50.816;4.416;2023-02-12T00:18:12;10.20;99.90
25753;DHT22;13600;50.816;4.416;2023-02-12T00:20:38;10.20;99.90
25753;DHT22;13600;50.816;4.416;2023-02-12T00:23:04;10.20;99.90
25753;DHT22;13600;50.816;4.416;2023-02-12T00:25:31;10.20;99.90
25753;DHT22;13600;50.816;4.416;2023-02-12T00:27:56;10.10;99.90
25753;DHT22;13600;50.816;4.416;2023-02-12T00:30:22;10.10;99.90
25753;DHT22;13600;50.816;4.416;2023-02-12T00:32:48;10.00;99.90
25753;DHT22;13600;50.816;4.416;2023-02-12T00:35:13;9.90;99.90
25753;DHT22;13600;50.816;4.416;2023-02-12T00:37:39;10.00;99.90
25753;DHT22;13600;50.816;4.416;2023-02-12T00:40:05;10.10;99.90
25753;DHT22;13600;50.816;4.416;2023-02-12T00:42:31;10.10;99.90
25753;DHT22;13600;50.816;4.416;2023-02-12T00:44:57;10.20;99.90
25753;DHT22;13600;50.816;4.416;2023-02-12T00:47:23;10.20;99.90
25753;DHT22;13600;50.816;4.416;2023-02-12T00:49:48;10.20;99.90
25753;DHT22;13600;50.816;4.416;2023-02-12T00:52:14;10.20;99.90
25753;DHT22;13600;50.816;4.416;2023-02-12T00:54:39;10.10;99.90
25753;DHT22;13600;50.816;4.416;2023-02-12T00:57:05;10.00;99.90
25753;DHT22;13600;50.816;4.416;2023-02-12T00:59:31;10.10;99.90
25753;DHT22;13600;50.816;4.416;2023-02-12T01:01:57;10.10;99.90
25753;DHT22;13600;50.816;4.416;2023-02-12T01:04:23;10.20;99.90
25753;DHT22;13600;50.816;4.416;2023-02-12T01:06:48;10.30;99.90
25753;DHT22;13600;50.816;4.416;2023-02-12T01:09:14;10.30;99.90
25753;DHT22;13600;50.816;4.416;2023-02-12T01:11:40;10.30;99.90
25753;DHT22;13600;50.816;4.416;2023-02-12T01:14:06;10.40;99.90
25753;DHT22;13600;50.816;4.416;2023-02-12T01:16:32;10.20;99.90
25753;DHT22;13600;50.816;4.416;2023-02-12T01:19:02;10.30;99.90
25753;DHT22;13600;50.816;4.416;2023-02-12T01:21:31;10.20;99.90
25753;DHT22;13600;50.816;4.416;2023-02-12T01:23:59;10.30;99.90
25753;DHT22;13600;50.816;4.416;2023-02-12T01:26:26;10.30;99.90
25753;DHT22;13600;50.816;4.416;2023-02-12T01:28:54;10.30;99.90
25753;DHT22;13600;50.816;4.416;2023-02-12T01:31:23;10.30;99.90
25753;DHT22;13600;50.816;4.416;2023-02-12T01:33:52;10.50;99.90
25753;DHT22;13600;50.816;4.416;2023-02-12T01:36:18;10.40;99.90
25753;DHT22;13600;50.816;4.416;2023-02-12T01:38:43;10.30;99.90
25753;DHT22;13600;50.816;4.416;2023-02-12T01:41:14;10.60;99.90
25753;DHT22;13600;50.816;4.416;2023-02-12T01:43:40;10.60;99.90
25753;DHT22;13600;50.816;4.416;2023-02-12T01:46:10;10.50;99.90
25753;DHT22;13600;50.816;4.416;2023-02-12T01:48:38;10.60;99.90
25753;DHT22;13600;50.816;4.416;2023-02-12T01:51:06;10.60;99.90
25753;DHT22;13600;50.816;4.416;2023-02-12T01:53:40;10.50;99.90
25753;DHT22;13600;50.816;4.416;2023-02-12T01:56:08;10.30;99.90
25753;DHT22;13600;50.816;4.416;2023-02-12T01:58:37;10.20;99.90
25753;DHT22;13600;50.816;4.416;2023-02-12T02:01:06;10.00;99.90
25753;DHT22;13600;50.816;4.416;2023-02-12T02:03:35;10.10;99.90
25753;DHT22;13600;50.816;4.416;2023-02-12T02:06:07;10.20;99.90
25753;DHT22;13600;50.816;4.416;2023-02-12T02:08:34;10.20;99.90
25753;DHT22;13600;50.816;4.416;2023-02-12T02:11:01;10.40;99.90
25753;DHT22;13600;50.816;4.416;2023-02-12T02:13:50;10.50;99.90
25753;DHT22;13600;50.816;4.416;2023-02-12T02:16:36;10.40;99.90
25753;DHT22;13600;50.816;4.416;2023-02-12T02:34:07;10.10;99.90
25753;DHT22;13600;50.816;4.416;2023-02-12T02:36:46;10.20;99.90
25753;DHT22;13600;50.816;4.416;2023-02-12T02:39:25;10.20;99.90
25753;DHT22;13600;50.816;4.416;2023-02-12T02:41:58;10.40;99.90
25753;DHT22;13600;50.816;4.416;2023-02-12T02:47:12;10.30;99.90
25753;DHT22;13600;50.816;4.416;2023-02-12T02:49:45;10.20;99.90
25753;DHT22;13600;50.816;4.416;2023-02-12T02:52:21;10.00;99.90
25753;DHT22;13600;50.816;4.416;2023-02-12T02:55:00;9.90;99.90
25753;DHT22;13600;50.816;4.416;2023-02-12T03:03:19;9.90;99.90
25753;DHT22;13600;50.816;4.416;2023-02-12T03:05:49;9.90;99.90
25753;DHT22;13600;50.816;4.416;2023-02-12T03:08:29;10.20;99.90
25753;DHT22;13600;50.816;4.416;2023-02-12T03:11:10;10.20;99.90
25753;DHT22;13600;50.816;4.416;2023-02-12T03:14:07;10.20;99.90
25753;DHT22;13600;50.816;4.416;2023-02-12T03:16:33;10.30;99.90
25753;DHT22;13600;50.816;4.416;2023-02-12T03:19:13;10.10;99.90
25753;DHT22;13600;50.816;4.416;2023-02-12T03:21:41;10.20;99.90
25753;DHT22;13600;50.816;4.416;2023-02-12T03:27:31;10.20;99.90
25753;DHT22;13600;50.816;4.416;2023-02-12T03:29:58;10.20;99.90
25753;DHT22;13600;50.816;4.416;2023-02-12T03:35:09;10.10;99.90
25753;DHT22;13600;50.816;4.416;2023-02-12T03:38:02;10.00;99.90
25753;DHT22;13600;50.816;4.416;2023-02-12T03:40:37;10.10;99.90
25753;DHT22;13600;50.816;4.416;2023-02-12T03:51:49;10.10;99.90
25753;DHT22;13600;50.816;4.416;2023-02-12T03:54:18;10.00;99.90
25753;DHT22;13600;50.816;4.416;2023-02-12T03:57:13;9.90;99.90
25753;DHT22;13600;50.816;4.416;2023-02-12T03:59:40;10.00;99.90
25753;DHT22;13600;50.816;4.416;2023-02-12T04:02:07;9.90;99.90
25753;DHT22;13600;50.816;4.416;2023-02-12T04:04:33;10.00;99.90
25753;DHT22;13600;50.816;4.416;2023-02-12T04:07:00;10.00;99.90
25753;DHT22;13600;50.816;4.416;2023-02-12T04:09:26;10.00;99.90
25753;DHT22;13600;50.816;4.416;2023-02-12T04:14:53;10.00;99.90
25753;DHT22;13600;50.816;4.416;2023-02-12T04:22:35;10.00;99.90
25753;DHT22;13600;50.816;4.416;2023-02-12T04:25:26;10.00;99.90
25753;DHT22;13600;50.816;4.416;2023-02-12T04:34:13;10.20;99.90
25753;DHT22;13600;50.816;4.416;2023-02-12T04:36:50;10.10;99.90
25753;DHT22;13600;50.816;4.416;2023-02-12T04:39:21;10.00;99.90
25753;DHT22;13600;50.816;4.416;2023-02-12T04:41:48;9.90;99.90
25753;DHT22;13600;50.816;4.416;2023-02-12T04:44:20;9.90;99.90
25753;DHT22;13600;50.816;4.416;2023-02-12T04:46:48;9.90;99.90
25753;DHT22;13600;50.816;4.416;2023-02-12T04:49:19;9.90;99.90
25753;DHT22;13600;50.816;4.416;2023-02-12T04:51:46;9.90;99.90
25753;DHT22;13600;50.816;4.416;2023-02-12T04:54:16;10.00;99.90
25753;DHT22;13600;50.816;4.416;2023-02-12T04:56:44;10.10;99.90
25753;DHT22;13600;50.816;4.416;2023-02-12T04:59:10;10.00;99.90
25753;DHT22;13600;50.816;4.416;2023-02-12T05:01:37;10.10;99.90
25753;DHT22;13600;50.816;4.416;2023-02-12T05:04:04;9.80;99.90
25753;DHT22;13600;50.816;4.416;2023-02-12T05:06:30;9.90;99.90
25753;DHT22;13600;50.816;4.416;2023-02-12T05:08:57;9.90;99.90
25753;DHT22;13600;50.816;4.416;2023-02-12T05:11:23;10.10;99.90
25753;DHT22;13600;50.816;4.416;2023-02-12T05:13:50;10.10;99.90
25753;DHT22;13600;50.816;4.416;2023-02-12T05:16:16;10.10;99.90
25753;DHT22;13600;50.816;4.416;2023-02-12T05:18:43;10.10;99.90
25753;DHT22;13600;50.816;4.416;2023-02-12T05:21:08;10.20;99.90
25753;DHT22;13600;50.816;4.416;2023-02-12T05:23:36;10.40;99.90
25753;DHT22;13600;50.816;4.416;2023-02-12T05:26:06;10.40;99.90
25753;DHT22;13600;50.816;4.416;2023-02-12T05:28:32;10.40;99.90
25753;DHT22;13600;50.816;4.416;2023-02-12T05:31:05;10.40;99.90
25753;DHT22;13600;50.816;4.416;2023-02-12T05:33:31;10.30;99.90
25753;DHT22;13600;50.816;4.416;2023-02-12T05:36:09;10.40;99.90
25753;DHT22;13600;50.816;4.416;2023-02-12T05:38:35;10.30;99.90
25753;DHT22;13600;50.816;4.416;2023-02-12T05:41:08;10.20;99.90
25753;DHT22;13600;50.816;4.416;2023-02-12T05:43:38;10.10;99.90
25753;DHT22;13600;50.816;4.416;2023-02-12T05:46:05;10.20;99.90
25753;DHT22;13600;50.816;4.416;2023-02-12T05:48:32;10.20;99.90
25753;DHT22;13600;50.816;4.416;2023-02-12T05:51:16;9.90;99.90
25753;DHT22;13600;50.816;4.416;2023-02-12T05:53:44;9.80;99.90
25753;DHT22;13600;50.816;4.416;2023-02-12T05:56:24;9.80;99.90
25753;DHT22;13600;50.816;4.416;2023-02-12T05:59:01;9.70;99.90
25753;DHT22;13600;50.816;4.416;2023-02-12T06:01:34;9.70;99.90
25753;DHT22;13600;50.816;4.416;2023-02-12T06:04:01;9.80;99.90
25753;DHT22;13600;50.816;4.416;2023-02-12T06:06:28;9.90;99.90
25753;DHT22;13600;50.816;4.416;2023-02-12T06:08:55;9.90;99.90
25753;DHT22;13600;50.816;4.416;2023-02-12T06:11:21;9.80;99.90
25753;DHT22;13600;50.816;4.416;2023-02-12T06:13:48;9.90;99.90
25753;DHT22;13600;50.816;4.416;2023-02-12T06:16:20;9.90;99.90
25753;DHT22;13600;50.816;4.416;2023-02-12T06:18:47;10.00;99.90
25753;DHT22;13600;50.816;4.416;2023-02-12T06:21:14;9.90;99.90
25753;DHT22;13600;50.816;4.416;2023-02-12T06:23:40;9.90;99.90
25753;DHT22;13600;50.816;4.416;2023-02-12T06:26:06;9.90;99.90
25753;DHT22;13600;50.816;4.416;2023-02-12T06:28:31;9.70;99.90
25753;DHT22;13600;50.816;4.416;2023-02-12T06:30:57;9.60;99.90
25753;DHT22;13600;50.816;4.416;2023-02-12T06:33:23;9.70;99.90
25753;DHT22;13600;50.816;4.416;2023-02-12T06:35:48;9.70;99.90
25753;DHT22;13600;50.816;4.416;2023-02-12T06:38:14;9.70;99.90
25753;DHT22;13600;50.816;4.416;2023-02-12T06:40:40;9.90;99.90
25753;DHT22;13600;50.816;4.416;2023-02-12T06:43:06;10.10;99.90
25753;DHT22;13600;50.816;4.416;2023-02-12T06:45:32;10.20;99.90
25753;DHT22;13600;50.816;4.416;2023-02-12T06:47:58;10.20;99.90
25753;DHT22;13600;50.816;4.416;2023-02-12T06:50:24;10.10;99.90
25753;DHT22;13600;50.816;4.416;2023-02-12T06:52:50;10.10;99.90
25753;DHT22;13600;50.816;4.416;2023-02-12T06:55:15;10.00;99.90
25753;DHT22;13600;50.816;4.416;2023-02-12T06:57:41;9.90;99.90
25753;DHT22;13600;50.816;4.416;2023-02-12T07:00:07;9.80;99.90
25753;DHT22;13600;50.816;4.416;2023-02-12T07:02:34;9.70;99.90
25753;DHT22;13600;50.816;4.416;2023-02-12T07:04:59;9.60;99.90
25753;DHT22;13600;50.816;4.416;2023-02-12T07:07:25;9.90;99.90
25753;DHT22;13600;50.816;4.416;2023-02-12T07:09:51;10.00;99.90
25753;DHT22;13600;50.816;4.416;2023-02-12T07:12:16;10.20;99.90
25753;DHT22;13600;50.816;4.416;2023-02-12T07:14:42;10.00;99.90
25753;DHT22;13600;50.816;4.416;2023-02-12T07:17:08;9.90;99.90
25753;DHT22;13600;50.816;4.416;2023-02-12T07:19:35;9.90;99.90
25753;DHT22;13600;50.816;4.416;2023-02-12T07:22:01;10.10;99.90
25753;DHT22;13600;50.816;4.416;2023-02-12T07:24:26;10.20;99.90
25753;DHT22;13600;50.816;4.416;2023-02-12T07:26:52;10.20;99.90
25753;DHT22;13600;50.816;4.416;2023-02-12T07:29:18;10.10;99.90
25753;DHT22;13600;50.816;4.416;2023-02-12T07:31:43;9.90;99.90
25753;DHT22;13600;50.816;4.416;2023-02-12T07:34:10;9.80;99.90
25753;DHT22;13600;50.816;4.416;2023-02-12T07:36:35;9.70;99.90
25753;DHT22;13600;50.816;4.416;2023-02-12T07:39:02;9.80;99.90
25753;DHT22;13600;50.816;4.416;2023-02-12T07:41:30;10.00;99.90
25753;DHT22;13600;50.816;4.416;2023-02-12T07:44:02;10.00;99.90
25753;DHT22;13600;50.816;4.416;2023-02-12T07:46:33;9.90;99.90
25753;DHT22;13600;50.816;4.416;2023-02-12T07:49:03;9.80;99.90
25753;DHT22;13600;50.816;4.416;2023-02-12T07:51:31;9.80;99.90
25753;DHT22;13600;50.816;4.416;2023-02-12T07:53:57;9.90;99.90
25753;DHT22;13600;50.816;4.416;2023-02-12T07:56:26;10.20;99.90
25753;DHT22;13600;50.816;4.416;2023-02-12T07:59:02;10.20;99.90
25753;DHT22;13600;50.816;4.416;2023-02-12T08:01:34;10.20;99.90
25753;DHT22;13600;50.816;4.416;2023-02-12T08:04:03;10.00;99.90
25753;DHT22;13600;50.816;4.416;2023-02-12T08:06:31;10.00;99.90
25753;DHT22;13600;50.816;4.416;2023-02-12T08:08:59;9.80;99.90
25753;DHT22;13600;50.816;4.416;2023-02-12T08:11:26;10.00;99.90
25753;DHT22;13600;50.816;4.416;2023-02-12T08:13:53;10.20;99.90
25753;DHT22;13600;50.816;4.416;2023-02-12T08:16:21;10.20;99.90
25753;DHT22;13600;50.816;4.416;2023-02-12T08:18:47;10.20;99.90
25753;DHT22;13600;50.816;4.416;2023-02-12T08:21:25;10.10;99.90
25753;DHT22;13600;50.816;4.416;2023-02-12T08:23:53;10.00;99.90
25753;DHT22;13600;50.816;4.416;2023-02-12T08:26:22;10.00;99.90
25753;DHT22;13600;50.816;4.416;2023-02-12T08:28:50;10.10;99.90
25753;DHT22;13600;50.816;4.416;2023-02-12T08:31:20;10.10;99.90
25753;DHT22;13600;50.816;4.416;2023-02-12T08:33:47;10.10;99.90
25753;DHT22;13600;50.816;4.416;2023-02-12T08:36:15;10.00;99.90
25753;DHT22;13600;50.816;4.416;2023-02-12T08:38:42;10.00;99.90
25753;DHT22;13600;50.816;4.416;2023-02-12T08:41:20;10.10;99.90
25753;DHT22;13600;50.816;4.416;2023-02-12T08:43:46;10.30;99.90
25753;DHT22;13600;50.816;4.416;2023-02-12T08:46:14;10.60;99.90
25753;DHT22;13600;50.816;4.416;2023-02-12T08:48:41;10.70;99.90
25753;DHT22;13600;50.816;4.416;2023-02-12T08:51:18;10.40;99.90
25753;DHT22;13600;50.816;4.416;2023-02-12T08:53:46;10.50;99.90
25753;DHT22;13600;50.816;4.416;2023-02-12T08:56:15;10.40;99.90
25753;DHT22;13600;50.816;4.416;2023-02-12T08:58:41;10.40;99.90
25753;DHT22;13600;50.816;4.416;2023-02-12T09:01:15;10.40;99.90
25753;DHT22;13600;50.816;4.416;2023-02-12T09:03:41;10.40;99.90
25753;DHT22;13600;50.816;4.416;2023-02-12T09:06:08;10.40;99.90
25753;DHT22;13600;50.816;4.416;2023-02-12T09:08:35;10.50;99.90
25753;DHT22;13600;50.816;4.416;2023-02-12T09:11:12;10.60;99.90
25753;DHT22;13600;50.816;4.416;2023-02-12T09:13:41;10.70;99.90
25753;DHT22;13600;50.816;4.416;2023-02-12T09:16:08;10.70;99.90
25753;DHT22;13600;50.816;4.416;2023-02-12T09:18:34;10.70;99.90
25753;DHT22;13600;50.816;4.416;2023-02-12T09:21:08;10.80;99.90
25753;DHT22;13600;50.816;4.416;2023-02-12T09:23:35;11.10;99.90
25753;DHT22;13600;50.816;4.416;2023-02-12T09:26:06;11.30;99.90
25753;DHT22;13600;50.816;4.416;2023-02-12T09:28:33;11.20;99.90
25753;DHT22;13600;50.816;4.416;2023-02-12T09:31:11;11.00;99.90
25753;DHT22;13600;50.816;4.416;2023-02-12T09:33:38;10.80;99.90
25753;DHT22;13600;50.816;4.416;2023-02-12T09:36:12;10.70;99.90
25753;DHT22;13600;50.816;4.416;2023-02-12T09:38:39;10.60;99.90
25753;DHT22;13600;50.816;4.416;2023-02-12T09:41:28;10.50;99.90
25753;DHT22;13600;50.816;4.416;2023-02-12T09:47:02;10.50;99.90
25753;DHT22;13600;50.816;4.416;2023-02-12T09:51:59;10.60;99.90
25753;DHT22;13600;50.816;4.416;2023-02-12T09:54:31;10.60;99.90
25753;DHT22;13600;50.816;4.416;2023-02-12T09:57:00;10.60;99.90
25753;DHT22;13600;50.816;4.416;2023-02-12T09:59:38;10.60;99.90
25753;DHT22;13600;50.816;4.416;2023-02-12T10:02:13;10.60;99.90
25753;DHT22;13600;50.816;4.416;2023-02-12T10:04:41;10.60;99.90
25753;DHT22;13600;50.816;4.416;2023-02-12T10:15:50;10.80;99.90
25753;DHT22;13600;50.816;4.416;2023-02-12T10:18:57;10.80;99.90
25753;DHT22;13600;50.816;4.416;2023-02-12T10:21:54;10.80;99.90
25753;DHT22;13600;50.816;4.416;2023-02-12T10:27:13;11.00;99.90
25753;DHT22;13600;50.816;4.416;2023-02-12T10:29:42;11.00;99.90
25753;DHT22;13600;50.816;4.416;2023-02-12T10:34:44;11.10;99.90
25753;DHT22;13600;50.816;4.416;2023-02-12T10:37:21;11.10;99.90
25753;DHT22;13600;50.816;4.416;2023-02-12T10:42:49;11.40;99.90
25753;DHT22;13600;50.816;4.416;2023-02-12T10:45:37;11.40;99.90
25753;DHT22;13600;50.816;4.416;2023-02-12T10:48:13;11.50;99.90
25753;DHT22;13600;50.816;4.416;2023-02-12T10:53:05;11.60;99.90
25753;DHT22;13600;50.816;4.416;2023-02-12T10:55:36;11.70;99.90
25753;DHT22;13600;50.816;4.416;2023-02-12T10:58:04;11.70;99.90
25753;DHT22;13600;50.816;4.416;2023-02-12T11:00:42;11.70;99.90
25753;DHT22;13600;50.816;4.416;2023-02-12T11:05:38;12.10;99.90
25753;DHT22;13600;50.816;4.416;2023-02-12T11:08:04;12.00;99.90
25753;DHT22;13600;50.816;4.416;2023-02-12T11:10:38;12.00;99.90
25753;DHT22;13600;50.816;4.416;2023-02-12T11:13:05;12.10;99.90
25753;DHT22;13600;50.816;4.416;2023-02-12T11:15:37;12.10;99.90
25753;DHT22;13600;50.816;4.416;2023-02-12T11:18:26;12.10;99.90
25753;DHT22;13600;50.816;4.416;2023-02-12T11:20:56;12.20;99.90
25753;DHT22;13600;50.816;4.416;2023-02-12T11:23:33;12.30;99.90
25753;DHT22;13600;50.816;4.416;2023-02-12T11:26:00;12.30;99.90
25753;DHT22;13600;50.816;4.416;2023-02-12T11:28:26;12.20;99.90
25753;DHT22;13600;50.816;4.416;2023-02-12T11:31:17;12.00;99.90
25753;DHT22;13600;50.816;4.416;2023-02-12T11:33:45;11.60;99.90
25753;DHT22;13600;50.816;4.416;2023-02-12T11:36:23;11.60;99.90
25753;DHT22;13600;50.816;4.416;2023-02-12T11:38:55;11.80;99.90
25753;DHT22;13600;50.816;4.416;2023-02-12T11:41:38;11.90;99.90
25753;DHT22;13600;50.816;4.416;2023-02-12T11:44:19;12.00;99.90
25753;DHT22;13600;50.816;4.416;2023-02-12T11:46:52;12.00;99.90
25753;DHT22;13600;50.816;4.416;2023-02-12T11:49:23;11.90;99.90
25753;DHT22;13600;50.816;4.416;2023-02-12T11:51:50;12.00;99.90
25753;DHT22;13600;50.816;4.416;2023-02-12T11:54:22;12.10;99.90
25753;DHT22;13600;50.816;4.416;2023-02-12T11:56:49;12.20;99.90
25753;DHT22;13600;50.816;4.416;2023-02-12T11:59:35;12.20;99.90
25753;DHT22;13600;50.816;4.416;2023-02-12T12:05:15;12.10;99.90
25753;DHT22;13600;50.816;4.416;2023-02-12T12:07:53;12.20;99.90
25753;DHT22;13600;50.816;4.416;2023-02-12T12:10:30;12.20;99.90
25753;DHT22;13600;50.816;4.416;2023-02-12T12:13:00;12.00;99.90
25753;DHT22;13600;50.816;4.416;2023-02-12T12:21:29;11.60;99.90
25753;DHT22;13600;50.816;4.416;2023-02-12T12:24:03;11.60;99.90
25753;DHT22;13600;50.816;4.416;2023-02-12T12:26:33;11.70;99.90
25753;DHT22;13600;50.816;4.416;2023-02-12T12:31:43;11.90;99.90
25753;DHT22;13600;50.816;4.416;2023-02-12T12:34:21;11.90;99.90
25753;DHT22;13600;50.816;4.416;2023-02-12T12:37:04;12.00;99.90
25753;DHT22;13600;50.816;4.416;2023-02-12T12:53:32;12.10;99.90
25753;DHT22;13600;50.816;4.416;2023-02-12T12:59:04;12.20;99.90
25753;DHT22;13600;50.816;4.416;2023-02-12T13:05:18;12.30;99.90
25753;DHT22;13600;50.816;4.416;2023-02-12T13:10:45;12.00;99.90
25753;DHT22;13600;50.816;4.416;2023-02-12T13:13:27;12.00;99.90
25753;DHT22;13600;50.816;4.416;2023-02-12T13:21:47;12.00;99.90
25753;DHT22;13600;50.816;4.416;2023-02-12T13:24:42;11.80;99.90
25753;DHT22;13600;50.816;4.416;2023-02-12T13:27:25;11.80;99.90
25753;DHT22;13600;50.816;4.416;2023-02-12T13:30:05;11.90;99.90
25753;DHT22;13600;50.816;4.416;2023-02-12T13:32:51;11.90;99.90
25753;DHT22;13600;50.816;4.416;2023-02-12T13:35:21;11.90;99.90
25753;DHT22;13600;50.816;4.416;2023-02-12T13:37:55;12.00;99.90
25753;DHT22;13600;50.816;4.416;2023-02-12T13:40:26;11.90;99.90
25753;DHT22;13600;50.816;4.416;2023-02-12T13:51:43;11.80;99.90
25753;DHT22;13600;50.816;4.416;2023-02-12T13:57:00;11.80;99.90
25753;DHT22;13600;50.816;4.416;2023-02-12T14:07:07;11.90;99.90
25753;DHT22;13600;50.816;4.416;2023-02-12T14:27:56;12.10;99.90
25753;DHT22;13600;50.816;4.416;2023-02-12T14:30:36;12.10;99.90
25753;DHT22;13600;50.816;4.416;2023-02-12T14:33:09;12.00;99.90
25753;DHT22;13600;50.816;4.416;2023-02-12T14:35:42;12.10;99.90
25753;DHT22;13600;50.816;4.416;2023-02-12T14:43:26;12.30;99.90
25753;DHT22;13600;50.816;4.416;2023-02-12T14:45:54;12.20;99.90
25753;DHT22;13600;50.816;4.416;2023-02-12T14:51:04;12.10;99.90
25753;DHT22;13600;50.816;4.416;2023-02-12T14:53:34;12.10;99.90
25753;DHT22;13600;50.816;4.416;2023-02-12T14:56:01;12.20;99.90
25753;DHT22;13600;50.816;4.416;2023-02-12T14:58:27;12.10;99.90
25753;DHT22;13600;50.816;4.416;2023-02-12T15:00:58;12.10;99.90
25753;DHT22;13600;50.816;4.416;2023-02-12T15:03:42;12.10;99.90
25753;DHT22;13600;50.816;4.416;2023-02-12T15:06:26;11.80;99.90
25753;DHT22;13600;50.816;4.416;2023-02-12T15:09:10;11.90;99.90
25753;DHT22;13600;50.816;4.416;2023-02-12T15:11:46;11.90;99.90
25753;DHT22;13600;50.816;4.416;2023-02-12T15:14:27;11.90;99.90
25753;DHT22;13600;50.816;4.416;2023-02-12T15:17:07;11.80;99.90
25753;DHT22;13600;50.816;4.416;2023-02-12T15:19:52;11.80;99.90
25753;DHT22;13600;50.816;4.416;2023-02-12T15:24:44;11.80;99.90
25753;DHT22;13600;50.816;4.416;2023-02-12T15:27:13;11.80;99.90
25753;DHT22;13600;50.816;4.416;2023-02-12T15:29:40;11.80;99.90
25753;DHT22;13600;50.816;4.416;2023-02-12T15:32:12;11.80;99.90
25753;DHT22;13600;50.816;4.416;2023-02-12T15:34:39;12.00;99.90
25753;DHT22;13600;50.816;4.416;2023-02-12T15:37:07;11.90;99.90
25753;DHT22;13600;50.816;4.416;2023-02-12T15:39:41;11.90;99.90
25753;DHT22;13600;50.816;4.416;2023-02-12T15:44:49;11.60;99.90
25753;DHT22;13600;50.816;4.416;2023-02-12T15:47:14;11.60;99.90
25753;DHT22;13600;50.816;4.416;2023-02-12T15:49:42;11.60;99.90
25753;DHT22;13600;50.816;4.416;2023-02-12T15:52:19;11.50;99.90
25753;DHT22;13600;50.816;4.416;2023-02-12T15:54:47;11.50;99.90
25753;DHT22;13600;50.816;4.416;2023-02-12T15:57:20;11.50;99.90
25753;DHT22;13600;50.816;4.416;2023-02-12T15:59:55;11.50;99.90
25753;DHT22;13600;50.816;4.416;2023-02-12T16:02:27;11.40;99.90
25753;DHT22;13600;50.816;4.416;2023-02-12T16:04:55;11.40;99.90
25753;DHT22;13600;50.816;4.416;2023-02-12T16:07:22;11.30;99.90
25753;DHT22;13600;50.816;4.416;2023-02-12T16:09:49;11.00;99.90
25753;DHT22;13600;50.816;4.416;2023-02-12T16:12:20;10.80;99.90
25753;DHT22;13600;50.816;4.416;2023-02-12T16:14:55;10.90;99.90
25753;DHT22;13600;50.816;4.416;2023-02-12T16:17:35;10.90;99.90
25753;DHT22;13600;50.816;4.416;2023-02-12T16:20:20;11.20;99.90
25753;DHT22;13600;50.816;4.416;2023-02-12T16:22:48;11.30;99.90
25753;DHT22;13600;50.816;4.416;2023-02-12T16:25:29;11.20;99.90
25753;DHT22;13600;50.816;4.416;2023-02-12T16:30:32;10.80;99.90
25753;DHT22;13600;50.816;4.416;2023-02-12T16:33:01;10.80;99.90
25753;DHT22;13600;50.816;4.416;2023-02-12T16:35:35;10.90;99.90
25753;DHT22;13600;50.816;4.416;2023-02-12T16:46:18;11.20;99.90
25753;DHT22;13600;50.816;4.416;2023-02-12T16:48:47;11.30;99.90
25753;DHT22;13600;50.816;4.416;2023-02-12T16:51:25;11.20;99.90
25753;DHT22;13600;50.816;4.416;2023-02-12T16:53:52;11.30;99.90
25753;DHT22;13600;50.816;4.416;2023-02-12T16:56:25;11.40;99.90
25753;DHT22;13600;50.816;4.416;2023-02-12T16:58:55;11.30;99.90
25753;DHT22;13600;50.816;4.416;2023-02-12T17:01:24;11.30;99.90
25753;DHT22;13600;50.816;4.416;2023-02-12T17:03:51;11.20;99.90
25753;DHT22;13600;50.816;4.416;2023-02-12T17:06:23;11.20;99.90
25753;DHT22;13600;50.816;4.416;2023-02-12T17:08:49;11.20;99.90
25753;DHT22;13600;50.816;4.416;2023-02-12T17:11:16;11.20;99.90
25753;DHT22;13600;50.816;4.416;2023-02-12T17:13:46;11.20;99.90
25753;DHT22;13600;50.816;4.416;2023-02-12T17:16:13;11.20;99.90
25753;DHT22;13600;50.816;4.416;2023-02-12T17:18:39;11.20;99.90
25753;DHT22;13600;50.816;4.416;2023-02-12T17:21:10;11.30;99.90
25753;DHT22;13600;50.816;4.416;2023-02-12T17:23:39;11.30;99.90
25753;DHT22;13600;50.816;4.416;2023-02-12T17:26:06;11.20;99.90
25753;DHT22;13600;50.816;4.416;2023-02-12T17:28:32;11.10;99.90
25753;DHT22;13600;50.816;4.416;2023-02-12T17:30:58;11.10;99.90
25753;DHT22;13600;50.816;4.416;2023-02-12T17:33:27;11.00;99.90
25753;DHT22;13600;50.816;4.416;2023-02-12T17:35:53;11.00;99.90
25753;DHT22;13600;50.816;4.416;2023-02-12T17:38:18;11.10;99.90
25753;DHT22;13600;50.816;4.416;2023-02-12T17:40:44;11.10;99.90
25753;DHT22;13600;50.816;4.416;2023-02-12T17:43:10;11.00;99.90
25753;DHT22;13600;50.816;4.416;2023-02-12T17:45:39;11.00;99.90
25753;DHT22;13600;50.816;4.416;2023-02-12T17:48:11;10.90;99.90
25753;DHT22;13600;50.816;4.416;2023-02-12T17:50:38;10.90;99.90
25753;DHT22;13600;50.816;4.416;2023-02-12T17:53:04;11.00;99.90
25753;DHT22;13600;50.816;4.416;2023-02-12T17:55:30;11.00;99.90
25753;DHT22;13600;50.816;4.416;2023-02-12T17:57:56;10.80;99.90
25753;DHT22;13600;50.816;4.416;2023-02-12T18:00:22;11.00;99.90
25753;DHT22;13600;50.816;4.416;2023-02-12T18:02:48;11.00;99.90
25753;DHT22;13600;50.816;4.416;2023-02-12T18:05:14;11.20;99.90
25753;DHT22;13600;50.816;4.416;2023-02-12T18:07:40;11.20;99.90
25753;DHT22;13600;50.816;4.416;2023-02-12T18:10:07;11.10;99.90
25753;DHT22;13600;50.816;4.416;2023-02-12T18:12:33;11.10;99.90
25753;DHT22;13600;50.816;4.416;2023-02-12T18:15:01;11.10;99.90
25753;DHT22;13600;50.816;4.416;2023-02-12T18:17:27;11.00;99.90
25753;DHT22;13600;50.816;4.416;2023-02-12T18:19:53;10.90;99.90
25753;DHT22;13600;50.816;4.416;2023-02-12T18:22:20;11.00;99.90
25753;DHT22;13600;50.816;4.416;2023-02-12T18:24:46;11.00;99.90
25753;DHT22;13600;50.816;4.416;2023-02-12T18:27:12;11.10;99.90
25753;DHT22;13600;50.816;4.416;2023-02-12T18:29:38;11.10;99.90
25753;DHT22;13600;50.816;4.416;2023-02-12T18:32:04;11.00;99.90
25753;DHT22;13600;50.816;4.416;2023-02-12T18:34:31;11.00;99.90
25753;DHT22;13600;50.816;4.416;2023-02-12T18:36:56;11.00;99.90
25753;DHT22;13600;50.816;4.416;2023-02-12T18:39:22;10.80;99.90
25753;DHT22;13600;50.816;4.416;2023-02-12T18:41:51;10.80;99.90
25753;DHT22;13600;50.816;4.416;2023-02-12T18:44:16;10.80;99.90
25753;DHT22;13600;50.816;4.416;2023-02-12T18:46:42;10.90;99.90
25753;DHT22;13600;50.816;4.416;2023-02-12T18:49:09;10.80;99.90
25753;DHT22;13600;50.816;4.416;2023-02-12T18:51:36;10.80;99.90
25753;DHT22;13600;50.816;4.416;2023-02-12T18:54:06;10.80;99.90